createdAt,value
2022-09-11T00:02:06.744Z,2.30
2022-09-11T00:04:37.462Z,2.40
2022-09-11T00:07:10.854Z,2.05
2022-09-11T00:09:41.698Z,2.78
2022-09-11T00:12:12.861Z,2.22
2022-09-11T00:14:44.002Z,2.55
2022-09-11T00:17:17.611Z,2.67
2022-09-11T00:19:48.310Z,2.20
2022-09-11T00:22:21.709Z,2.38
2022-09-11T00:24:52.445Z,2.38
2022-09-11T00:27:23.454Z,2.85
2022-09-11T00:29:54.583Z,3.15
2022-09-11T00:32:25.456Z,2.55
2022-09-11T00:34:56.712Z,3.08
2022-09-11T00:37:30.254Z,3.00
2022-09-11T00:40:01.127Z,2.80
2022-09-11T00:42:31.937Z,3.00
2022-09-11T00:45:10.017Z,2.90
2022-09-11T00:47:41.239Z,2.88
2022-09-11T00:50:15.808Z,2.92
2022-09-11T00:52:54.267Z,2.55
2022-09-11T00:55:27.914Z,2.55
2022-09-11T00:58:03.159Z,2.90
2022-09-11T01:00:34.311Z,2.75
2022-09-11T01:03:06.213Z,3.25
2022-09-11T01:05:41.610Z,3.08
2022-09-11T01:08:15.233Z,2.70
2022-09-11T01:10:53.573Z,3.38
2022-09-11T01:13:34.094Z,2.65
2022-09-11T01:16:15.231Z,2.42
2022-09-11T01:18:55.223Z,2.50
2022-09-11T01:21:55.274Z,2.40
2022-09-11T01:24:52.337Z,2.70
2022-09-11T01:27:44.750Z,3.20
2022-09-11T01:30:18.664Z,2.78
2022-09-11T01:33:02.988Z,3.95
2022-09-11T01:35:45.145Z,3.38
2022-09-11T01:38:23.384Z,3.58
2022-09-11T01:40:58.379Z,3.50
2022-09-11T01:43:37.936Z,3.30
2022-09-11T01:46:10.944Z,3.60
2022-09-11T01:48:46.338Z,4.05
2022-09-11T01:51:22.155Z,3.35
2022-09-11T01:53:54.800Z,3.70
2022-09-11T01:56:31.347Z,3.40
2022-09-11T02:01:43.760Z,2.95
2022-09-11T02:04:20.415Z,2.83
2022-09-11T02:06:56.318Z,3.17
2022-09-11T02:09:36.313Z,3.53
2022-09-11T02:12:11.473Z,3.22
2022-09-11T02:14:46.811Z,3.22
2022-09-11T02:17:26.968Z,2.97
2022-09-11T02:19:59.913Z,3.17
2022-09-11T02:22:31.203Z,3.38
2022-09-11T02:25:04.370Z,3.83
2022-09-11T02:27:35.489Z,3.17
2022-09-11T02:30:10.973Z,3.50
2022-09-11T02:32:45.130Z,3.03
2022-09-11T02:35:16.626Z,3.20
2022-09-11T02:37:57.147Z,3.03
2022-09-11T02:40:49.780Z,3.50
2022-09-11T02:43:42.746Z,3.47
2022-09-11T02:46:49.976Z,3.17
2022-09-11T02:49:28.342Z,4.10
2022-09-11T02:52:12.037Z,3.50
2022-09-11T02:54:53.148Z,3.40
2022-09-11T02:57:32.096Z,3.47
2022-09-11T03:00:06.882Z,3.40
2022-09-11T03:02:43.769Z,3.40
2022-09-11T03:07:45.589Z,3.38
2022-09-11T03:10:16.664Z,3.25
2022-09-11T03:12:48.171Z,3.88
2022-09-11T03:15:20.948Z,3.47
2022-09-11T03:17:55.258Z,3.00
2022-09-11T03:20:26.021Z,3.30
2022-09-11T03:22:56.769Z,3.33
2022-09-11T03:25:28.413Z,3.58
2022-09-11T03:28:01.369Z,3.58
2022-09-11T03:30:32.109Z,2.97
2022-09-11T03:33:06.225Z,3.67
2022-09-11T03:35:37.791Z,2.88
2022-09-11T03:38:08.796Z,3.25
2022-09-11T03:40:42.428Z,3.63
2022-09-11T03:43:13.421Z,3.30
2022-09-11T03:45:45.080Z,3.15
2022-09-11T03:48:19.098Z,3.13
2022-09-11T03:50:51.135Z,3.45
2022-09-11T03:53:22.400Z,3.38
2022-09-11T03:55:53.096Z,3.25
2022-09-11T03:58:24.413Z,2.85
2022-09-11T04:00:56.648Z,2.95
2022-09-11T04:03:31.623Z,2.95
2022-09-11T04:06:03.938Z,3.30
2022-09-11T04:08:37.408Z,3.42
2022-09-11T04:11:09.544Z,3.28
2022-09-11T04:13:44.224Z,3.08
2022-09-11T04:16:20.270Z,2.85
2022-09-11T04:18:58.788Z,3.15
2022-09-11T04:21:30.681Z,3.20
2022-09-11T04:24:01.739Z,2.80
2022-09-11T04:26:35.858Z,3.20
2022-09-11T04:29:28.218Z,2.90
2022-09-11T04:32:00.503Z,2.72
2022-09-11T04:34:38.263Z,3.10
2022-09-11T04:37:10.044Z,3.33
2022-09-11T04:39:41.135Z,2.95
2022-09-11T04:42:13.306Z,3.22
2022-09-11T04:44:44.296Z,3.28
2022-09-11T04:47:16.336Z,3.13
2022-09-11T04:49:51.206Z,3.70
2022-09-11T04:52:22.182Z,3.33
2022-09-11T04:54:52.934Z,3.42
2022-09-11T04:57:23.679Z,3.30
2022-09-11T04:59:54.501Z,3.05
2022-09-11T05:02:26.154Z,3.60
2022-09-11T05:05:02.074Z,3.67
2022-09-11T05:07:33.260Z,3.03
2022-09-11T05:10:08.586Z,3.40
2022-09-11T05:12:39.715Z,3.85
2022-09-11T05:15:13.896Z,3.00
2022-09-11T05:17:48.644Z,3.50
2022-09-11T05:20:24.595Z,2.85
2022-09-11T05:22:55.568Z,3.00
2022-09-11T05:25:26.738Z,3.50
2022-09-11T05:27:57.721Z,3.33
2022-09-11T05:30:28.582Z,4.40
2022-09-11T05:33:00.129Z,3.50
2022-09-11T05:35:33.831Z,3.67
2022-09-11T05:38:04.569Z,3.30
2022-09-11T05:40:35.444Z,3.20
2022-09-11T05:43:06.211Z,3.75
2022-09-11T05:45:37.444Z,3.88
2022-09-11T05:48:08.469Z,3.53
2022-09-11T05:50:44.326Z,3.45
2022-09-11T05:53:15.226Z,3.30
2022-09-11T05:55:46.143Z,3.47
2022-09-11T05:58:17.665Z,3.30
2022-09-11T06:00:49.911Z,3.70
2022-09-11T06:03:21.889Z,3.35
2022-09-11T06:05:55.555Z,2.90
2022-09-11T06:08:26.386Z,3.50
2022-09-11T06:10:58.566Z,2.85
2022-09-11T06:13:32.119Z,2.90
2022-09-11T06:16:05.900Z,3.55
2022-09-11T06:18:37.153Z,3.13
2022-09-11T06:21:14.662Z,3.53
2022-09-11T06:23:54.167Z,3.53
2022-09-11T06:26:27.328Z,3.47
2022-09-11T06:28:58.686Z,3.40
2022-09-11T06:31:30.990Z,3.60
2022-09-11T06:34:01.943Z,3.53
2022-09-11T06:36:36.003Z,3.88
2022-09-11T06:39:11.028Z,4.00
2022-09-11T06:41:43.338Z,4.97
2022-09-11T06:44:18.728Z,3.63
2022-09-11T06:46:51.444Z,4.03
2022-09-11T06:49:23.764Z,3.67
2022-09-11T06:52:15.780Z,3.65
2022-09-11T06:54:54.709Z,4.25
2022-09-11T06:57:25.844Z,4.47
2022-09-11T06:59:58.153Z,3.78
2022-09-11T07:02:29.924Z,4.50
2022-09-11T07:05:03.912Z,4.05
2022-09-11T07:07:39.525Z,4.53
2022-09-11T07:10:13.105Z,3.42
2022-09-11T07:12:46.087Z,3.60
2022-09-11T07:15:17.649Z,3.70
2022-09-11T07:17:49.077Z,3.08
2022-09-11T07:20:21.031Z,3.40
2022-09-11T07:22:54.938Z,4.30
2022-09-11T07:25:26.255Z,2.80
2022-09-11T07:27:57.826Z,3.60
2022-09-11T07:30:29.488Z,4.00
2022-09-11T07:33:01.242Z,3.63
2022-09-11T07:35:32.555Z,3.40
2022-09-11T07:38:06.268Z,3.67
2022-09-11T07:43:11.064Z,2.50
2022-09-11T07:45:42.294Z,2.30
2022-09-11T07:48:15.263Z,2.33
2022-09-11T07:50:46.496Z,1.92
2022-09-11T07:53:21.219Z,1.63
2022-09-11T07:55:53.242Z,1.92
2022-09-11T07:58:24.509Z,1.40
2022-09-11T08:01:02.810Z,1.60
2022-09-11T08:03:34.586Z,2.38
2022-09-11T08:06:08.549Z,2.08
2022-09-11T08:08:42.458Z,1.90
2022-09-11T08:11:15.750Z,1.92
2022-09-11T08:13:52.446Z,1.50
2022-09-11T08:16:28.682Z,1.67
2022-09-11T08:21:34.236Z,1.42
2022-09-11T08:24:08.555Z,1.65
2022-09-11T08:26:43.716Z,1.38
2022-09-11T08:29:18.482Z,1.40
2022-09-11T08:31:51.317Z,1.60
2022-09-11T08:34:23.127Z,1.20
2022-09-11T08:36:54.014Z,1.63
2022-09-11T08:39:28.164Z,1.15
2022-09-11T08:42:07.501Z,1.50
2022-09-11T08:44:47.928Z,1.20
2022-09-11T08:47:29.093Z,1.35
2022-09-11T08:50:07.964Z,1.42
2022-09-11T08:52:40.542Z,1.20
2022-09-11T08:55:26.706Z,1.40
2022-09-11T08:58:07.050Z,1.50
2022-09-11T09:00:47.295Z,1.55
2022-09-11T09:03:49.498Z,1.20
2022-09-11T09:06:35.127Z,0.90
2022-09-11T09:09:13.370Z,1.08
2022-09-11T09:11:55.610Z,1.20
2022-09-11T09:14:38.596Z,1.00
2022-09-11T09:17:12.832Z,1.05
2022-09-11T09:19:49.572Z,1.00
2022-09-11T09:22:25.414Z,0.95
2022-09-11T09:25:01.513Z,1.10
2022-09-11T09:27:40.253Z,0.90
2022-09-11T09:30:18.636Z,1.20
2022-09-11T09:32:55.016Z,1.00
2022-09-11T09:35:33.056Z,1.00
2022-09-11T09:38:05.228Z,0.70
2022-09-11T09:40:38.942Z,0.93
2022-09-11T09:43:36.886Z,1.00
2022-09-11T09:46:18.952Z,0.88
2022-09-11T09:48:50.023Z,0.90
2022-09-11T09:51:21.468Z,0.80
2022-09-11T09:53:57.545Z,0.85
2022-09-11T09:56:31.251Z,1.10
2022-09-11T09:59:18.339Z,1.00
2022-09-11T10:01:52.843Z,0.80
2022-09-11T10:04:27.375Z,0.70
2022-09-11T10:07:11.082Z,0.70
2022-09-11T10:09:50.379Z,0.93
2022-09-11T10:12:24.936Z,0.80
2022-09-11T10:15:01.597Z,0.95
2022-09-11T10:17:37.389Z,0.70
2022-09-11T10:20:27.176Z,0.87
2022-09-11T10:22:59.236Z,0.90
2022-09-11T10:25:30.818Z,0.70
2022-09-11T10:28:09.608Z,0.80
2022-09-11T10:30:46.278Z,0.85
2022-09-11T10:33:26.619Z,0.70
2022-09-11T10:36:00.318Z,1.00
2022-09-11T10:38:42.091Z,0.70
2022-09-11T10:41:19.938Z,1.23
2022-09-11T10:43:56.233Z,0.88
2022-09-11T10:46:40.544Z,0.80
2022-09-11T10:49:20.446Z,0.50
2022-09-11T10:52:19.256Z,0.70
2022-09-11T10:55:09.519Z,1.05
2022-09-11T10:57:47.249Z,0.70
2022-09-11T11:00:24.263Z,0.80
2022-09-11T11:03:01.280Z,0.75
2022-09-11T11:05:39.730Z,0.90
2022-09-11T11:08:39.546Z,0.90
2022-09-11T11:11:29.362Z,0.55
2022-09-11T11:14:24.477Z,0.90
2022-09-11T11:17:08.034Z,0.70
2022-09-11T11:20:04.378Z,0.50
2022-09-11T11:22:58.778Z,0.77
2022-09-11T11:25:38.134Z,0.68
2022-09-11T11:28:32.222Z,0.98
2022-09-11T11:31:15.947Z,0.68
2022-09-11T11:34:03.723Z,0.70
2022-09-11T11:36:44.013Z,0.60
2022-09-11T11:39:25.837Z,0.50
2022-09-11T11:42:07.957Z,0.50
2022-09-11T11:44:48.484Z,0.60
2022-09-11T11:47:25.638Z,0.40
2022-09-11T11:50:04.846Z,0.77
2022-09-11T11:52:56.658Z,1.02
2022-09-11T11:55:32.086Z,0.40
2022-09-11T11:58:11.174Z,0.70
2022-09-11T12:00:47.379Z,0.65
2022-09-11T12:03:25.240Z,0.50
2022-09-11T12:05:57.072Z,0.50
2022-09-11T12:08:31.285Z,0.50
2022-09-11T12:11:08.424Z,0.50
2022-09-11T12:13:44.485Z,0.52
2022-09-11T12:16:21.108Z,0.35
2022-09-11T12:19:20.455Z,0.40
2022-09-11T12:22:24.634Z,0.40
2022-09-11T12:31:20.302Z,0.40
2022-09-11T12:33:57.468Z,0.40
2022-09-11T12:36:53.527Z,0.38
2022-09-11T12:39:36.025Z,0.32
2022-09-11T12:42:37.371Z,0.35
2022-09-11T12:45:37.428Z,0.40
2022-09-11T12:48:20.922Z,0.30
2022-09-11T12:50:58.417Z,0.40
2022-09-11T12:53:34.350Z,0.60
2022-09-11T12:56:08.934Z,0.40
2022-09-11T12:58:43.019Z,0.55
2022-09-11T13:01:22.414Z,0.20
2022-09-11T13:04:05.670Z,0.60
2022-09-11T13:06:45.947Z,0.60
2022-09-11T13:09:25.426Z,0.57
2022-09-11T13:11:59.024Z,0.40
2022-09-11T13:14:53.112Z,0.43
2022-09-11T13:17:30.943Z,1.30
2022-09-11T13:20:26.930Z,0.50
2022-09-11T13:32:44.542Z,0.30
2022-09-11T13:35:20.006Z,0.30
2022-09-11T13:38:03.296Z,0.30
2022-09-11T13:40:38.788Z,0.30
2022-09-11T13:43:10.608Z,0.20
2022-09-11T13:45:42.215Z,0.20
2022-09-11T14:20:08.491Z,0.45
2022-09-11T14:22:43.979Z,0.40
2022-09-11T14:25:27.368Z,0.50
2022-09-11T14:27:59.155Z,0.70
2022-09-11T14:30:37.133Z,0.28
2022-09-11T14:33:21.819Z,0.50
2022-09-11T14:35:55.992Z,0.32
2022-09-11T14:38:36.037Z,0.30
2022-09-11T14:41:10.748Z,0.50
2022-09-11T14:43:49.590Z,0.40
2022-09-11T14:46:26.900Z,0.45
2022-09-11T14:48:58.484Z,1.20
2022-09-11T14:51:30.985Z,0.57
2022-09-11T14:54:09.225Z,0.40
2022-09-11T14:56:47.565Z,0.68
2022-09-11T14:59:20.110Z,0.50
2022-09-11T15:01:53.070Z,0.60
2022-09-11T15:04:26.418Z,0.52
2022-09-11T15:07:00.145Z,0.45
2022-09-11T15:09:34.624Z,0.38
2022-09-11T15:12:12.165Z,0.40
2022-09-11T15:14:56.626Z,0.40
2022-09-11T15:17:31.960Z,0.30
2022-09-11T15:20:05.034Z,1.00
2022-09-11T15:22:36.994Z,0.40
2022-09-11T15:25:12.632Z,0.35
2022-09-11T15:27:44.683Z,0.55
2022-09-11T15:30:18.108Z,0.68
2022-09-11T15:32:50.824Z,0.47
2022-09-11T15:35:23.695Z,0.32
2022-09-11T15:37:55.969Z,0.40
2022-09-11T15:40:33.646Z,0.30
2022-09-11T15:43:05.611Z,1.30
2022-09-11T15:45:37.707Z,0.30
2022-09-11T15:48:09.171Z,0.50
2022-09-11T15:50:40.514Z,0.50
2022-09-11T15:53:14.899Z,0.35
2022-09-11T15:55:48.707Z,0.60
2022-09-11T15:58:19.837Z,0.40
2022-09-11T16:00:52.688Z,0.35
2022-09-11T16:03:23.757Z,0.50
2022-09-11T16:05:55.009Z,0.50
2022-09-11T16:08:26.371Z,0.50
2022-09-11T16:11:02.052Z,0.50
2022-09-11T16:13:34.265Z,0.30
2022-09-11T16:16:06.654Z,0.45
2022-09-11T16:18:40.609Z,0.50
2022-09-11T16:21:12.893Z,0.60
2022-09-11T16:23:44.569Z,0.20
2022-09-11T16:26:21.055Z,0.40
2022-09-11T16:28:53.211Z,0.63
2022-09-11T16:31:24.535Z,0.38
2022-09-11T16:33:57.335Z,0.70
2022-09-11T16:36:30.752Z,0.30
2022-09-11T16:39:02.286Z,0.50
2022-09-11T16:41:37.403Z,0.40
2022-09-11T16:44:10.546Z,0.57
2022-09-11T16:46:42.476Z,0.30
2022-09-11T16:49:16.834Z,0.22
2022-09-11T16:51:50.405Z,0.40
2022-09-11T16:54:22.500Z,0.32
2022-09-11T16:56:58.414Z,0.40
2022-09-11T16:59:30.293Z,0.40
2022-09-11T17:02:01.942Z,0.40
2022-09-11T17:04:33.349Z,0.32
2022-09-11T17:07:05.039Z,0.40
2022-09-11T17:09:37.001Z,0.65
2022-09-11T17:12:11.945Z,1.02
2022-09-11T17:14:43.421Z,0.40
2022-09-11T17:17:14.797Z,0.50
2022-09-11T17:19:51.346Z,0.40
2022-09-11T17:22:22.429Z,0.43
2022-09-11T17:24:54.041Z,0.40
2022-09-11T17:27:28.615Z,0.73
2022-09-11T17:30:00.552Z,0.28
2022-09-11T17:32:32.296Z,0.40
2022-09-11T17:35:04.126Z,0.40
2022-09-11T17:37:36.162Z,0.43
2022-09-11T17:40:09.697Z,0.65
2022-09-11T17:42:44.427Z,0.90
2022-09-11T17:45:16.016Z,0.43
2022-09-11T17:47:47.360Z,0.50
2022-09-11T17:50:19.373Z,0.45
2022-09-11T17:52:51.153Z,0.50
2022-09-11T17:55:22.657Z,0.70
2022-09-11T17:58:00.030Z,0.80
2022-09-11T18:00:32.045Z,0.60
2022-09-11T18:03:03.474Z,0.40
2022-09-11T18:05:35.946Z,0.40
2022-09-11T18:08:07.627Z,0.68
2022-09-11T18:10:39.126Z,0.73
2022-09-11T18:13:13.672Z,0.50
2022-09-11T18:15:47.377Z,1.00
2022-09-11T18:18:19.687Z,0.98
2022-09-11T18:20:54.497Z,0.82
2022-09-11T18:23:26.626Z,0.73
2022-09-11T18:25:59.780Z,1.00
2022-09-11T18:28:34.321Z,0.60
2022-09-11T18:31:07.266Z,0.40
2022-09-11T18:33:39.030Z,0.70
2022-09-11T18:36:13.926Z,0.63
2022-09-11T18:38:45.212Z,0.73
2022-09-11T18:41:16.630Z,0.32
2022-09-11T18:43:51.034Z,0.60
2022-09-11T18:46:22.429Z,0.55
2022-09-11T18:48:54.527Z,0.50
2022-09-11T18:51:26.480Z,0.57
2022-09-11T18:54:00.045Z,0.50
2022-09-11T18:56:33.840Z,0.60
2022-09-11T18:59:07.776Z,0.55
2022-09-11T19:01:40.211Z,0.70
2022-09-11T19:04:13.381Z,0.65
2022-09-11T19:06:45.539Z,0.50
2022-09-11T19:09:17.729Z,0.80
2022-09-11T19:11:48.939Z,0.50
2022-09-11T19:14:23.083Z,0.68
2022-09-11T19:16:56.729Z,0.82
2022-09-11T19:19:27.950Z,0.50
2022-09-11T19:22:00.411Z,0.70
2022-09-11T19:24:31.976Z,0.65
2022-09-11T19:27:03.410Z,0.50
2022-09-11T19:29:37.324Z,0.70
2022-09-11T19:32:09.085Z,0.85
2022-09-11T19:34:47.038Z,0.60
2022-09-11T19:37:20.452Z,0.50
2022-09-11T19:39:53.150Z,0.82
2022-09-11T19:42:25.381Z,0.70
2022-09-11T19:45:00.386Z,0.60
2022-09-11T19:47:32.548Z,0.70
2022-09-11T19:50:04.724Z,0.70
2022-09-11T19:52:38.223Z,1.75
2022-09-11T19:55:10.539Z,1.35
2022-09-11T19:57:41.946Z,1.38
2022-09-11T20:00:18.551Z,1.10
2022-09-11T20:02:49.824Z,1.10
2022-09-11T20:05:21.511Z,1.00
2022-09-11T20:07:54.452Z,1.10
2022-09-11T20:10:28.134Z,1.08
2022-09-11T20:13:01.677Z,1.38
2022-09-11T20:15:39.264Z,0.80
2022-09-11T20:18:11.666Z,0.80
2022-09-11T20:20:45.466Z,0.77
2022-09-11T20:23:16.528Z,0.80
2022-09-11T20:25:47.691Z,0.80
2022-09-11T20:28:18.539Z,0.85
2022-09-11T20:30:52.378Z,0.70
2022-09-11T20:33:23.735Z,0.95
2022-09-11T20:35:54.706Z,0.80
2022-09-11T20:38:25.469Z,0.85
2022-09-11T20:40:56.188Z,0.80
2022-09-11T20:43:27.173Z,0.90
2022-09-11T20:46:00.948Z,0.80
2022-09-11T20:48:32.105Z,0.93
2022-09-11T20:51:06.346Z,1.27
2022-09-11T20:53:37.516Z,0.80
2022-09-11T20:56:11.310Z,0.90
2022-09-11T20:58:42.574Z,0.80
2022-09-11T21:01:19.278Z,1.08
2022-09-11T21:03:51.727Z,0.77
2022-09-11T21:06:26.116Z,0.77
2022-09-11T21:08:59.250Z,0.73
2022-09-11T21:11:31.699Z,0.75
2022-09-11T21:14:03.507Z,0.90
2022-09-11T21:16:37.339Z,0.85
2022-09-11T21:19:09.332Z,0.82
2022-09-11T21:21:40.942Z,0.70
2022-09-11T21:24:15.480Z,0.43
2022-09-11T21:26:47.103Z,1.10
2022-09-11T21:29:18.207Z,0.90
2022-09-11T21:31:53.321Z,1.30
2022-09-11T21:34:24.389Z,1.33
2022-09-11T21:36:55.625Z,1.30
2022-09-11T21:39:26.541Z,1.23
2022-09-11T21:41:57.868Z,1.00
2022-09-11T21:44:29.090Z,1.00
2022-09-11T21:47:02.758Z,0.80
2022-09-11T21:49:33.882Z,0.90
2022-09-11T21:52:05.272Z,1.00
2022-09-11T21:54:36.561Z,0.98
2022-09-11T21:57:08.247Z,0.60
2022-09-11T21:59:39.332Z,0.77
2022-09-11T22:02:12.996Z,0.70
2022-09-11T22:04:44.291Z,2.13
2022-09-11T22:07:17.834Z,1.10
2022-09-11T22:09:49.443Z,1.23
2022-09-11T22:12:20.641Z,0.93
2022-09-11T22:14:53.393Z,0.80
2022-09-11T22:17:27.578Z,1.02
2022-09-11T22:19:59.011Z,1.00
2022-09-11T22:22:30.035Z,1.02
2022-09-11T22:25:01.053Z,0.88
2022-09-11T22:27:32.173Z,0.73
2022-09-11T22:30:04.799Z,0.80
2022-09-11T22:32:38.883Z,1.00
2022-09-11T22:35:10.577Z,0.68
2022-09-11T22:37:41.707Z,0.82
2022-09-11T22:40:14.106Z,0.60
2022-09-11T22:42:44.949Z,0.70
2022-09-11T22:45:15.919Z,0.75
2022-09-11T22:47:50.156Z,0.82
2022-09-11T22:50:21.490Z,0.80
2022-09-11T22:52:52.533Z,0.60
2022-09-11T22:55:23.524Z,0.70
2022-09-11T22:57:55.761Z,0.55
2022-09-11T23:00:26.588Z,0.93
2022-09-11T23:02:59.957Z,0.80
2022-09-11T23:05:43.035Z,0.93
2022-09-11T23:08:14.241Z,1.00
2022-09-11T23:10:46.093Z,0.70
2022-09-11T23:13:18.194Z,0.77
2022-09-11T23:15:49.342Z,0.70
2022-09-11T23:18:23.140Z,1.42
2022-09-11T23:20:56.786Z,0.73
2022-09-11T23:23:28.858Z,0.80
2022-09-11T23:25:59.893Z,0.80
2022-09-11T23:28:30.932Z,0.82
2022-09-11T23:31:02.002Z,0.80
2022-09-11T23:33:35.798Z,1.15
2022-09-11T23:36:08.982Z,0.90
2022-09-11T23:38:39.905Z,0.63
2022-09-11T23:41:10.837Z,0.57
2022-09-11T23:43:42.122Z,0.50
2022-09-11T23:46:13.553Z,0.60
2022-09-11T23:48:47.967Z,0.65
2022-09-11T23:51:19.312Z,0.77
2022-09-11T23:53:51.985Z,0.70
2022-09-11T23:56:24.388Z,0.50
2022-09-11T23:58:55.353Z,0.95
